aviador You're here:

PABL Decoded Metar

BUCKLAND in AK, USA
Report Time2018-01-17 00:56:00
UTC Time2018-01-17 01:16:37
Flight Rules vfr VFR
WindCalm
Visibility9999 m
Phenomena:N/A
Clouds:N/A
Expected CloudBase > 800 ft AGL from Temp-Dew spread
CeilingNone
Temp-14°C (ISA -29)
Dew Point-16°C (85% RH)
AAT-17.4°C
QNH1000 hPa
Density Alt-3,156 ft
Elevation23 ft
Report Wrong Elevation
Raw Report
PABL 170056Z AUTO 00000KT 10SM CLR M14/M16 A2953 RMK AO2 SLP004
T11441161 FZRANO=

Extra information for PABL:More info

Airport Information Weather charts Add Link Nearby Venues Social comments

AIRNAV info for PABL